createdAt,value
2017-08-23T00:00:14.517Z,0
2017-08-23T00:01:24.787Z,0
2017-08-23T00:02:35.061Z,0
2017-08-23T00:03:44.713Z,0
2017-08-23T00:04:54.983Z,0
2017-08-23T00:06:05.247Z,0
2017-08-23T00:07:14.573Z,0
2017-08-23T00:08:24.838Z,0
2017-08-23T00:09:35.107Z,0
2017-08-23T00:10:44.747Z,0
2017-08-23T00:11:54.696Z,0
2017-08-23T00:13:04.972Z,0
2017-08-23T00:14:15.241Z,0
2017-08-23T00:15:25.198Z,0
2017-08-23T00:16:35.464Z,0
2017-08-23T00:17:45.415Z,0
2017-08-23T00:18:55.683Z,0
2017-08-23T00:20:05.951Z,0
2017-08-23T00:21:16.213Z,0
2017-08-23T00:22:26.476Z,0
2017-08-23T00:23:36.753Z,0
2017-08-23T00:24:47.016Z,0
2017-08-23T00:25:57.287Z,0
2017-08-23T00:27:07.553Z,0
2017-08-23T00:28:17.520Z,0
2017-08-23T00:29:27.787Z,0
2017-08-23T00:30:38.059Z,0
2017-08-23T00:31:47.387Z,0
2017-08-23T00:32:57.655Z,0
2017-08-23T00:34:07.614Z,0
2017-08-23T00:35:17.579Z,0
2017-08-23T00:36:27.539Z,0
2017-08-23T00:37:37.805Z,0
2017-08-23T00:38:48.071Z,0
2017-08-23T00:39:58.030Z,0
2017-08-23T00:41:08.302Z,0
2017-08-23T00:42:18.577Z,0
2017-08-23T00:43:28.847Z,0
2017-08-23T00:44:39.118Z,0
2017-08-23T00:45:49.382Z,0
2017-08-23T00:46:59.645Z,0
2017-08-23T00:48:09.924Z,0
2017-08-23T00:49:20.191Z,0
2017-08-23T00:50:30.455Z,0
2017-08-23T00:51:40.414Z,0
2017-08-23T00:52:50.382Z,0
2017-08-23T00:54:00.647Z,0
2017-08-23T00:55:10.922Z,0
2017-08-23T00:56:21.187Z,0
2017-08-23T00:57:31.456Z,0
2017-08-23T00:58:41.408Z,0
2017-08-23T00:59:51.047Z,0
2017-08-23T01:01:01.312Z,0
2017-08-23T01:02:11.594Z,0
2017-08-23T01:03:21.864Z,0
2017-08-23T01:04:31.813Z,0
2017-08-23T01:05:42.080Z,0
2017-08-23T01:06:52.040Z,0
2017-08-23T01:08:02.307Z,0
2017-08-23T01:09:12.574Z,0
2017-08-23T01:10:22.843Z,0
2017-08-23T01:11:32.797Z,0
2017-08-23T01:12:43.069Z,0
2017-08-23T01:13:53.340Z,0
2017-08-23T01:15:03.610Z,0
2017-08-23T01:16:13.873Z,0
2017-08-23T01:17:24.139Z,0
2017-08-23T01:18:34.095Z,0
2017-08-23T01:19:44.051Z,0
2017-08-23T01:20:54.320Z,0
2017-08-23T01:22:04.608Z,0
2017-08-23T01:23:14.914Z,0
2017-08-23T01:24:24.871Z,0
2017-08-23T01:25:34.505Z,0
2017-08-23T01:26:44.226Z,0
2017-08-23T01:27:54.178Z,0
2017-08-23T01:29:04.446Z,0
2017-08-23T01:30:14.082Z,0
2017-08-23T01:31:24.350Z,0
2017-08-23T01:32:34.613Z,0
2017-08-23T01:33:44.567Z,0
2017-08-23T01:34:54.204Z,0
2017-08-23T01:36:04.501Z,0
2017-08-23T01:37:14.767Z,0
2017-08-23T01:38:24.725Z,0
2017-08-23T01:39:34.992Z,0
2017-08-23T01:40:45.259Z,0
2017-08-23T01:41:55.530Z,0
2017-08-23T01:43:05.481Z,0
2017-08-23T01:44:15.765Z,0
2017-08-23T01:45:26.037Z,0
2017-08-23T01:46:35.986Z,0
2017-08-23T01:47:46.257Z,0
2017-08-23T01:48:56.532Z,0
2017-08-23T01:50:06.492Z,0
2017-08-23T01:51:16.777Z,0
2017-08-23T01:52:27.045Z,0
2017-08-23T01:53:36.682Z,0
2017-08-23T01:54:46.951Z,0
2017-08-23T01:55:57.230Z,0
2017-08-23T01:57:07.184Z,0
2017-08-23T01:58:17.462Z,0
2017-08-23T01:59:27.726Z,0
2017-08-23T02:00:37.990Z,0
2017-08-23T02:01:47.627Z,0
2017-08-23T02:02:57.896Z,0
2017-08-23T02:04:08.160Z,0
2017-08-23T02:05:18.120Z,0
2017-08-23T02:06:28.071Z,0
2017-08-23T02:07:38.343Z,0
2017-08-23T02:08:48.340Z,0
2017-08-23T02:09:58.609Z,0
2017-08-23T02:11:08.876Z,0
2017-08-23T02:12:18.522Z,0
2017-08-23T02:13:28.829Z,0
2017-08-23T02:14:39.095Z,0
2017-08-23T02:15:49.363Z,0
2017-08-23T02:16:59.315Z,0
2017-08-23T02:18:09.272Z,0
2017-08-23T02:19:19.225Z,0
2017-08-23T02:20:29.493Z,0
2017-08-23T02:21:39.763Z,0
2017-08-23T02:22:50.030Z,0
2017-08-23T02:24:00.300Z,0
2017-08-23T02:25:10.263Z,0
2017-08-23T02:26:20.532Z,0
2017-08-23T02:27:30.167Z,0
2017-08-23T02:28:40.119Z,0
2017-08-23T02:29:50.385Z,0
2017-08-23T02:31:00.339Z,0
2017-08-23T02:32:10.614Z,0
2017-08-23T02:33:20.886Z,0
2017-08-23T02:34:31.162Z,0
2017-08-23T02:35:41.116Z,0
2017-08-23T02:36:51.391Z,0
2017-08-23T02:38:01.660Z,0
2017-08-23T02:39:11.936Z,0
2017-08-23T02:40:22.205Z,0
2017-08-23T02:41:32.162Z,0
2017-08-23T02:42:42.117Z,0
2017-08-23T02:43:52.387Z,0
2017-08-23T02:45:02.650Z,0
2017-08-23T02:46:12.613Z,0
2017-08-23T02:47:22.886Z,0
2017-08-23T02:48:33.151Z,0
2017-08-23T02:49:43.103Z,0
2017-08-23T02:50:52.744Z,0
2017-08-23T02:52:03.012Z,0
2017-08-23T02:53:12.989Z,0
2017-08-23T02:54:23.257Z,0
2017-08-23T02:55:33.529Z,0
2017-08-23T02:56:43.168Z,0
2017-08-23T02:57:53.433Z,0
2017-08-23T02:59:03.703Z,0
2017-08-23T03:00:13.683Z,0
2017-08-23T03:01:23.952Z,0
2017-08-23T03:02:34.222Z,0
2017-08-23T03:03:44.488Z,4
2017-08-23T03:04:54.760Z,4
2017-08-23T03:06:05.036Z,0
2017-08-23T03:07:15.301Z,0
2017-08-23T03:08:25.568Z,4
2017-08-23T03:09:35.833Z,4
2017-08-23T03:10:45.785Z,0
2017-08-23T03:11:56.049Z,4
2017-08-23T03:13:05.376Z,4
2017-08-23T03:14:15.642Z,4
2017-08-23T03:15:25.904Z,8
2017-08-23T03:16:36.172Z,8
2017-08-23T03:17:46.124Z,8
2017-08-23T03:18:56.390Z,8
2017-08-23T03:20:06.661Z,12
2017-08-23T03:21:16.621Z,12
2017-08-23T03:22:26.882Z,12
2017-08-23T03:23:37.150Z,16
2017-08-23T03:24:47.418Z,20
2017-08-23T03:25:56.742Z,20
2017-08-23T03:27:07.010Z,24
2017-08-23T03:28:17.273Z,28
2017-08-23T03:29:27.542Z,28
2017-08-23T03:30:37.817Z,36
2017-08-23T03:31:47.772Z,36
2017-08-23T03:32:57.724Z,40
2017-08-23T03:34:07.678Z,44
2017-08-23T03:35:17.318Z,52
2017-08-23T03:36:26.957Z,56
2017-08-23T03:37:37.226Z,64
2017-08-23T03:38:47.180Z,72
2017-08-23T03:39:57.456Z,80
2017-08-23T03:41:07.725Z,88
2017-08-23T03:42:17.995Z,100
2017-08-23T03:43:27.636Z,108
2017-08-23T03:44:37.587Z,120
2017-08-23T03:45:47.859Z,128
2017-08-23T03:46:57.808Z,140
2017-08-23T03:48:08.101Z,152
2017-08-23T03:49:18.052Z,164
2017-08-23T03:50:27.689Z,176
2017-08-23T03:51:37.979Z,188
2017-08-23T03:52:48.250Z,204
2017-08-23T03:53:58.209Z,216
2017-08-23T03:55:08.478Z,232
2017-08-23T03:56:18.745Z,248
2017-08-23T03:57:29.014Z,264
2017-08-23T03:58:39.283Z,284
2017-08-23T03:59:49.238Z,300
2017-08-23T04:00:59.197Z,316
2017-08-23T04:02:09.484Z,336
2017-08-23T04:03:19.759Z,356
2017-08-23T04:04:29.711Z,372
2017-08-23T04:05:39.666Z,392
2017-08-23T04:06:49.625Z,408
2017-08-23T04:07:59.576Z,428
2017-08-23T04:09:09.843Z,444
2017-08-23T04:10:19.801Z,464
2017-08-23T04:11:30.076Z,484
2017-08-23T04:12:40.355Z,500
2017-08-23T04:13:50.619Z,520
2017-08-23T04:15:00.575Z,540
2017-08-23T04:16:10.531Z,560
2017-08-23T04:17:20.797Z,580
2017-08-23T04:18:30.751Z,604
2017-08-23T04:19:40.707Z,624
2017-08-23T04:20:50.972Z,644
2017-08-23T04:22:01.239Z,656
2017-08-23T04:23:11.195Z,664
2017-08-23T04:24:21.459Z,668
2017-08-23T04:25:31.726Z,672
2017-08-23T04:26:41.996Z,672
2017-08-23T04:27:52.267Z,676
2017-08-23T04:29:02.220Z,676
2017-08-23T04:30:12.493Z,668
2017-08-23T04:31:22.759Z,672
2017-08-23T04:32:33.027Z,688
2017-08-23T04:33:43.301Z,716
2017-08-23T04:34:53.575Z,740
2017-08-23T04:36:03.543Z,764
2017-08-23T04:37:13.181Z,796
2017-08-23T04:38:23.134Z,832
2017-08-23T04:39:33.403Z,872
2017-08-23T04:40:43.680Z,924
2017-08-23T04:41:53.946Z,984
2017-08-23T04:43:04.225Z,1052
2017-08-23T04:44:14.177Z,1128
2017-08-23T04:45:24.157Z,1200
2017-08-23T04:46:34.424Z,1268
2017-08-23T04:47:44.698Z,1344
2017-08-23T04:48:54.650Z,1412
2017-08-23T04:50:04.924Z,1512
2017-08-23T04:51:14.890Z,1620
2017-08-23T04:52:25.154Z,1724
2017-08-23T04:53:34.796Z,1840
2017-08-23T04:54:45.062Z,1984
2017-08-23T04:55:55.332Z,2124
2017-08-23T04:57:04.979Z,2272
2017-08-23T04:58:15.247Z,2444
2017-08-23T04:59:25.518Z,2616
2017-08-23T05:00:35.160Z,2724
2017-08-23T05:01:45.121Z,2844
2017-08-23T05:02:55.397Z,2952
2017-08-23T05:04:05.350Z,2996
2017-08-23T05:05:15.622Z,3016
2017-08-23T05:06:25.889Z,3024
2017-08-23T05:07:35.857Z,3056
2017-08-23T05:08:46.122Z,3068
2017-08-23T05:09:56.076Z,3096
2017-08-23T05:11:06.368Z,3148
2017-08-23T05:12:16.323Z,3144
2017-08-23T05:13:26.595Z,3104
2017-08-23T05:14:36.546Z,3044
2017-08-23T05:15:46.506Z,3020
2017-08-23T05:16:56.775Z,3028
2017-08-23T05:18:06.735Z,3044
2017-08-23T05:19:17.011Z,3108
2017-08-23T05:20:27.281Z,3144
2017-08-23T05:21:36.918Z,3164
2017-08-23T05:22:46.890Z,3152
2017-08-23T05:23:56.533Z,3144
2017-08-23T05:25:06.804Z,3168
2017-08-23T05:26:16.758Z,3180
2017-08-23T05:27:27.075Z,3212
2017-08-23T05:28:37.345Z,3244
2017-08-23T05:29:47.618Z,3272
2017-08-23T05:30:56.946Z,3284
2017-08-23T05:32:07.255Z,3288
2017-08-23T05:33:17.525Z,3284
2017-08-23T05:34:27.798Z,3252
2017-08-23T05:35:38.075Z,3216
2017-08-23T05:36:48.349Z,3232
2017-08-23T05:37:58.618Z,3208
2017-08-23T05:39:08.578Z,3216
2017-08-23T05:40:18.537Z,3208
2017-08-23T05:41:28.806Z,3204
2017-08-23T05:42:39.079Z,3156
2017-08-23T05:43:49.056Z,3212
2017-08-23T05:44:58.713Z,3224
2017-08-23T05:46:08.981Z,3156
2017-08-23T05:47:19.253Z,3244
2017-08-23T05:48:29.228Z,3364
2017-08-23T05:49:39.182Z,3508
2017-08-23T05:50:49.453Z,3672
2017-08-23T05:51:59.098Z,3844
2017-08-23T05:53:08.742Z,4012
2017-08-23T05:54:18.386Z,4204
2017-08-23T05:55:28.654Z,4420
2017-08-23T05:56:38.608Z,4612
2017-08-23T05:57:48.878Z,4760
2017-08-23T05:58:59.154Z,4908
2017-08-23T06:00:09.118Z,4968
2017-08-23T06:01:19.080Z,4980
2017-08-23T06:02:28.726Z,4988
2017-08-23T06:03:38.686Z,4952
2017-08-23T06:04:48.648Z,4908
2017-08-23T06:05:58.919Z,4868
2017-08-23T06:07:09.199Z,4820
2017-08-23T06:08:19.160Z,4808
2017-08-23T06:09:29.439Z,4800
2017-08-23T06:10:39.710Z,4764
2017-08-23T06:11:49.999Z,4672
2017-08-23T06:13:00.267Z,4616
2017-08-23T06:14:10.226Z,4544
2017-08-23T06:15:20.502Z,4472
2017-08-23T06:16:30.460Z,4328
2017-08-23T06:17:40.102Z,4200
2017-08-23T06:18:50.375Z,4036
2017-08-23T06:20:00.653Z,3872
2017-08-23T06:21:10.610Z,3720
2017-08-23T06:22:20.564Z,3608
2017-08-23T06:23:30.519Z,3520
2017-08-23T06:24:40.484Z,3448
2017-08-23T06:25:50.837Z,3488
2017-08-23T06:27:01.125Z,3572
2017-08-23T06:28:11.401Z,3704
2017-08-23T06:29:21.677Z,3828
2017-08-23T06:30:31.945Z,3960
2017-08-23T06:31:42.259Z,4036
2017-08-23T06:32:52.222Z,4068
2017-08-23T06:34:02.496Z,4040
2017-08-23T06:35:12.768Z,4048
2017-08-23T06:36:22.730Z,4064
2017-08-23T06:37:32.696Z,4224
2017-08-23T06:38:42.648Z,4440
2017-08-23T06:39:52.624Z,4644
2017-08-23T06:41:02.899Z,4888
2017-08-23T06:42:12.541Z,5028
2017-08-23T06:43:22.820Z,5064
2017-08-23T06:44:32.779Z,5072
2017-08-23T06:45:43.056Z,5096
2017-08-23T06:46:56.966Z,5220
2017-08-23T06:48:07.593Z,5336
2017-08-23T06:49:17.859Z,5464
2017-08-23T06:50:28.130Z,5532
2017-08-23T06:51:38.399Z,5552
2017-08-23T06:52:48.675Z,5612
2017-08-23T06:53:58.321Z,5704
2017-08-23T06:55:08.594Z,5788
2017-08-23T06:56:18.560Z,5840
2017-08-23T06:57:28.519Z,5880
2017-08-23T06:58:38.845Z,5808
2017-08-23T06:59:48.806Z,5712
2017-08-23T07:00:59.073Z,5688
2017-08-23T07:02:09.042Z,5608
2017-08-23T07:03:19.313Z,5496
2017-08-23T07:04:29.597Z,5392
2017-08-23T07:05:39.870Z,5480
2017-08-23T07:06:50.138Z,5388
2017-08-23T07:07:59.781Z,5316
2017-08-23T07:09:10.052Z,5200
2017-08-23T07:10:20.011Z,5068
2017-08-23T07:11:29.965Z,4932
2017-08-23T07:12:40.236Z,4804
2017-08-23T07:13:50.511Z,4668
2017-08-23T07:15:00.776Z,4500
2017-08-23T07:16:10.429Z,4360
2017-08-23T07:17:20.387Z,4244
2017-08-23T07:18:30.346Z,4184
2017-08-23T07:19:40.616Z,4124
2017-08-23T07:20:50.930Z,4072
2017-08-23T07:22:01.204Z,4012
2017-08-23T07:23:11.170Z,3960
2017-08-23T07:24:21.129Z,3924
2017-08-23T07:25:31.092Z,3896
2017-08-23T07:26:41.362Z,3884
2017-08-23T07:27:51.659Z,3884
2017-08-23T07:29:01.934Z,3888
2017-08-23T07:30:11.888Z,3728
2017-08-23T07:31:22.156Z,3900
2017-08-23T07:32:32.434Z,3924
2017-08-23T07:33:42.703Z,3940
2017-08-23T07:34:52.661Z,3908
2017-08-23T07:36:02.630Z,3908
2017-08-23T07:37:12.905Z,3896
2017-08-23T07:38:23.182Z,3856
2017-08-23T07:39:33.137Z,3964
2017-08-23T07:40:43.408Z,3988
2017-08-23T07:41:53.716Z,4016
2017-08-23T07:43:03.997Z,4048
2017-08-23T07:44:14.268Z,4068
2017-08-23T07:45:24.222Z,4076
2017-08-23T07:46:33.570Z,4100
2017-08-23T07:47:43.838Z,4108
2017-08-23T07:48:53.803Z,4108
2017-08-23T07:50:04.075Z,4092
2017-08-23T07:51:14.439Z,4076
2017-08-23T07:52:24.398Z,4064
2017-08-23T07:53:34.361Z,4076
2017-08-23T07:54:44.319Z,4124
2017-08-23T07:55:54.601Z,4024
2017-08-23T07:57:04.880Z,4144
2017-08-23T07:58:14.839Z,4236
2017-08-23T07:59:25.115Z,4144
2017-08-23T08:00:35.070Z,4360
2017-08-23T08:01:45.029Z,4424
2017-08-23T08:02:55.302Z,4540
2017-08-23T08:04:05.586Z,4640
2017-08-23T08:05:15.861Z,4752
2017-08-23T08:06:26.136Z,4852
2017-08-23T08:07:36.091Z,4908
2017-08-23T08:08:46.049Z,4976
2017-08-23T08:09:55.696Z,5064
2017-08-23T08:11:05.986Z,5176
2017-08-23T08:12:16.260Z,5268
2017-08-23T08:13:26.532Z,5376
2017-08-23T08:14:36.802Z,5472
2017-08-23T08:20:10.549Z,5648
2017-08-23T08:21:20.194Z,5804
2017-08-23T08:22:29.834Z,5752
2017-08-23T08:23:40.109Z,5836
2017-08-23T08:24:50.380Z,5588
2017-08-23T08:26:00.900Z,5652
2017-08-23T08:27:11.177Z,5788
2017-08-23T08:28:21.135Z,5904
2017-08-23T08:29:31.436Z,6244
2017-08-23T08:30:41.393Z,6448
2017-08-23T08:31:53.348Z,6692
2017-08-23T08:33:03.622Z,6832
2017-08-23T08:34:13.581Z,6804
2017-08-23T08:35:23.225Z,6728
2017-08-23T08:36:33.531Z,6608
2017-08-23T08:37:43.799Z,6496
2017-08-23T08:38:53.445Z,6580
2017-08-23T08:40:03.718Z,6548
2017-08-23T08:41:13.992Z,6692
2017-08-23T08:42:23.634Z,6896
2017-08-23T08:43:33.914Z,7172
2017-08-23T08:44:43.569Z,7484
2017-08-23T08:45:53.841Z,7936
2017-08-23T08:47:03.797Z,8228
2017-08-23T08:48:13.753Z,8476
2017-08-23T08:49:23.713Z,8792
2017-08-23T08:50:33.999Z,9152
2017-08-23T08:51:44.274Z,9548
2017-08-23T08:52:54.554Z,9852
2017-08-23T08:54:04.845Z,10284
2017-08-23T08:55:15.169Z,10308
2017-08-23T08:56:24.816Z,10468
2017-08-23T08:57:35.093Z,10572
2017-08-23T08:58:45.370Z,10616
2017-08-23T08:59:55.329Z,10596
2017-08-23T09:01:05.600Z,10536
2017-08-23T09:02:15.872Z,10568
2017-08-23T09:03:26.147Z,10612
2017-08-23T09:04:36.105Z,10548
2017-08-23T09:05:46.094Z,10424
2017-08-23T09:06:55.427Z,10304
2017-08-23T09:08:05.697Z,10188
2017-08-23T09:09:15.655Z,10052
2017-08-23T09:10:25.931Z,9908
2017-08-23T09:11:35.908Z,9776
2017-08-23T09:12:45.867Z,9640
2017-08-23T09:13:55.826Z,9612
2017-08-23T09:15:06.103Z,9868
2017-08-23T09:16:15.748Z,10428
2017-08-23T09:17:25.709Z,11120
2017-08-23T09:18:35.980Z,11876
2017-08-23T09:19:45.642Z,12336
2017-08-23T09:20:55.602Z,12516
2017-08-23T09:22:05.562Z,12488
2017-08-23T09:23:15.845Z,12428
2017-08-23T09:24:26.136Z,12488
2017-08-23T09:25:36.410Z,12752
2017-08-23T09:26:46.682Z,12784
2017-08-23T09:27:56.651Z,12624
2017-08-23T09:29:06.931Z,12192
2017-08-23T09:30:17.205Z,11892
2017-08-23T09:31:27.483Z,11820
2017-08-23T09:32:37.758Z,11800
2017-08-23T09:33:48.034Z,12140
2017-08-23T09:34:57.994Z,12136
2017-08-23T09:36:07.954Z,12208
2017-08-23T09:37:18.230Z,12164
2017-08-23T09:38:28.505Z,12196
2017-08-23T09:39:38.475Z,12332
2017-08-23T09:40:48.125Z,12316
2017-08-23T09:41:58.084Z,12120
2017-08-23T09:43:08.064Z,11784
2017-08-23T09:44:18.335Z,11484
2017-08-23T09:45:28.305Z,11408
2017-08-23T09:46:38.582Z,11240
2017-08-23T09:47:48.906Z,11024
2017-08-23T09:48:59.190Z,10988
2017-08-23T09:50:09.148Z,10988
2017-08-23T09:51:19.114Z,11172
2017-08-23T09:52:29.391Z,11108
2017-08-23T09:53:39.667Z,11328
2017-08-23T09:54:49.941Z,11492
2017-08-23T09:56:00.216Z,11596
2017-08-23T09:57:10.489Z,11212
2017-08-23T09:58:20.455Z,11244
2017-08-23T09:59:30.746Z,11240
2017-08-23T10:00:41.033Z,10924
2017-08-23T10:01:50.993Z,11072
2017-08-23T10:03:01.267Z,11036
2017-08-23T10:04:11.544Z,11012
2017-08-23T10:05:21.193Z,10736
2017-08-23T10:06:31.480Z,10616
2017-08-23T10:07:41.750Z,10412
2017-08-23T10:08:52.024Z,10348
2017-08-23T10:10:01.981Z,10444
2017-08-23T10:11:12.252Z,10580
2017-08-23T10:12:22.211Z,10792
2017-08-23T10:13:31.867Z,11060
2017-08-23T10:14:42.145Z,11360
2017-08-23T10:15:51.794Z,11544
2017-08-23T10:17:01.770Z,11508
2017-08-23T10:18:11.731Z,11508
2017-08-23T10:19:22.011Z,11460
2017-08-23T10:20:31.661Z,11212
2017-08-23T10:21:41.315Z,11020
2017-08-23T10:22:50.964Z,10804
2017-08-23T10:24:01.239Z,10584
2017-08-23T10:25:11.513Z,10364
2017-08-23T10:26:21.794Z,10280
2017-08-23T10:27:31.780Z,10120
2017-08-23T10:28:41.737Z,10016
2017-08-23T10:29:52.012Z,9932
2017-08-23T10:31:02.299Z,9840
2017-08-23T10:32:12.578Z,9716
2017-08-23T10:33:22.852Z,9624
2017-08-23T10:34:33.139Z,9388
2017-08-23T10:35:42.790Z,9304
2017-08-23T10:36:53.062Z,9260
2017-08-23T10:38:03.344Z,9224
2017-08-23T10:39:13.620Z,9000
2017-08-23T10:40:23.264Z,8844
2017-08-23T10:41:33.546Z,8716
2017-08-23T10:42:43.822Z,8708
2017-08-23T10:43:54.100Z,8616
2017-08-23T10:45:04.060Z,8544
2017-08-23T10:46:14.340Z,8556
2017-08-23T10:47:24.307Z,8680
2017-08-23T10:48:34.292Z,8756
2017-08-23T10:49:44.568Z,8816
2017-08-23T10:50:54.299Z,8916
2017-08-23T10:52:04.576Z,9100
2017-08-23T10:53:14.857Z,9324
2017-08-23T10:54:25.138Z,9552
2017-08-23T10:55:35.415Z,9792
2017-08-23T10:56:45.692Z,10040
2017-08-23T10:57:55.339Z,10228
2017-08-23T10:59:05.317Z,10440
2017-08-23T11:00:14.962Z,10772
2017-08-23T11:01:24.922Z,11096
2017-08-23T11:02:35.200Z,11436
2017-08-23T11:03:45.476Z,11772
2017-08-23T11:04:55.439Z,12012
2017-08-23T11:06:05.094Z,12200
2017-08-23T11:07:15.063Z,12464
2017-08-23T11:08:25.339Z,12796
2017-08-23T11:09:35.299Z,12952
2017-08-23T11:10:45.573Z,12948
2017-08-23T11:11:55.855Z,12960
2017-08-23T11:13:06.138Z,13144
2017-08-23T11:14:16.101Z,13224
2017-08-23T11:15:26.394Z,13404
2017-08-23T11:16:36.355Z,13372
2017-08-23T11:17:46.318Z,13244
2017-08-23T11:18:56.596Z,13264
2017-08-23T11:20:06.871Z,13536
2017-08-23T11:21:16.837Z,13748
2017-08-23T11:22:26.489Z,14420
2017-08-23T11:23:36.770Z,31264
2017-08-23T11:24:47.050Z,67648
2017-08-23T11:25:57.447Z,70048
2017-08-23T11:27:07.727Z,72576
2017-08-23T11:28:17.689Z,71296
2017-08-23T11:29:27.662Z,67968
2017-08-23T11:30:37.937Z,68832
2017-08-23T11:31:47.591Z,66400
2017-08-23T11:32:57.877Z,64384
2017-08-23T11:34:07.212Z,65312
2017-08-23T11:35:16.865Z,66304
2017-08-23T11:36:26.839Z,67552
2017-08-23T11:37:37.121Z,70560
2017-08-23T11:38:47.101Z,64832
2017-08-23T11:39:57.085Z,61792
2017-08-23T11:41:07.371Z,63648
2017-08-23T11:42:17.670Z,58016
2017-08-23T11:43:27.955Z,56576
2017-08-23T11:44:37.921Z,54528
2017-08-23T11:45:47.890Z,42336
2017-08-23T11:46:57.555Z,32416
2017-08-23T11:48:07.843Z,47424
2017-08-23T11:49:17.813Z,46912
2017-08-23T11:50:27.471Z,47008
2017-08-23T11:51:37.768Z,54016
2017-08-23T11:52:47.114Z,55360
2017-08-23T11:53:57.405Z,51488
2017-08-23T11:55:07.376Z,48288
2017-08-23T11:56:17.671Z,49664
2017-08-23T11:57:27.954Z,46464
2017-08-23T11:58:37.935Z,46048
2017-08-23T11:59:47.915Z,40672
2017-08-23T12:00:57.571Z,33824
2017-08-23T12:02:07.857Z,31456
2017-08-23T12:03:18.140Z,35136
2017-08-23T12:04:28.432Z,34336
2017-08-23T12:05:38.717Z,33056
2017-08-23T12:06:48.705Z,36320
2017-08-23T12:07:58.986Z,42272
2017-08-23T12:09:08.961Z,42208
2017-08-23T12:10:19.245Z,35072
2017-08-23T12:11:29.534Z,39264
2017-08-23T12:12:39.190Z,30080
2017-08-23T12:13:49.484Z,28128
2017-08-23T12:14:59.140Z,24384
2017-08-23T12:16:09.435Z,27648
2017-08-23T12:17:19.408Z,24992
2017-08-23T12:18:29.693Z,22560
2017-08-23T12:19:39.681Z,26144
2017-08-23T12:20:49.343Z,24160
2017-08-23T12:21:59.312Z,26912
2017-08-23T12:23:09.277Z,31008
2017-08-23T12:24:19.564Z,34528
2017-08-23T12:25:29.862Z,40512
2017-08-23T12:26:39.834Z,41824
2017-08-23T12:27:49.492Z,49792
2017-08-23T12:28:59.152Z,60960
2017-08-23T12:30:09.453Z,64544
2017-08-23T12:31:19.740Z,58496
2017-08-23T12:32:29.712Z,39520
2017-08-23T12:33:40.023Z,42400
2017-08-23T12:34:50.308Z,50976
2017-08-23T12:36:00.598Z,52832
2017-08-23T12:37:10.886Z,53504
2017-08-23T12:38:20.226Z,59520
2017-08-23T12:39:30.514Z,59488
2017-08-23T12:40:40.485Z,58400
2017-08-23T12:41:50.454Z,56448
2017-08-23T12:43:00.744Z,55360
2017-08-23T12:44:11.036Z,57312
2017-08-23T12:45:21.006Z,65536
2017-08-23T12:46:31.303Z,68160
2017-08-23T12:47:40.987Z,69568
2017-08-23T12:48:51.274Z,72000
2017-08-23T12:50:01.567Z,61792
2017-08-23T12:51:11.872Z,64256
2017-08-23T12:52:22.157Z,71584
2017-08-23T12:53:32.448Z,69216
2017-08-23T12:54:42.107Z,69248
2017-08-23T12:55:52.401Z,65472
2017-08-23T12:57:02.379Z,63264
2017-08-23T12:58:12.678Z,65920
2017-08-23T12:59:22.661Z,63712
2017-08-23T13:00:32.634Z,64192
2017-08-23T13:01:42.923Z,57664
2017-08-23T13:02:52.901Z,62464
2017-08-23T13:04:02.875Z,75680
2017-08-23T13:05:12.860Z,75520
2017-08-23T13:06:23.155Z,63488
2017-08-23T13:07:33.447Z,45728
2017-08-23T13:08:43.115Z,35776
2017-08-23T13:09:53.387Z,37376
2017-08-23T13:11:03.080Z,48192
2017-08-23T13:12:13.056Z,60256
2017-08-23T13:13:22.406Z,46336
2017-08-23T13:14:32.700Z,60928
2017-08-23T13:15:42.986Z,34240
2017-08-23T13:16:52.958Z,31168
2017-08-23T13:18:01.672Z,53024
2017-08-23T13:19:11.025Z,36192
2017-08-23T13:20:20.686Z,36704
2017-08-23T13:21:30.666Z,29568
2017-08-23T13:22:40.976Z,38880
2017-08-23T13:23:51.331Z,20288
2017-08-23T13:25:01.623Z,21152
2017-08-23T13:26:11.595Z,42112
2017-08-23T13:27:21.268Z,57632
2017-08-23T13:28:31.554Z,65152
2017-08-23T13:29:41.732Z,61536
2017-08-23T13:30:52.019Z,61280
2017-08-23T13:32:02.001Z,71264
2017-08-23T13:33:11.352Z,75584
2017-08-23T13:34:21.646Z,76544
2017-08-23T13:35:31.954Z,65536
2017-08-23T13:36:41.927Z,61152
2017-08-23T13:37:51.900Z,50944
2017-08-23T13:39:01.875Z,39776
2017-08-23T13:40:11.546Z,47040
2017-08-23T13:41:21.528Z,39328
2017-08-23T13:42:31.816Z,38112
2017-08-23T13:43:41.794Z,26656
2017-08-23T13:44:52.084Z,34816
2017-08-23T13:46:02.061Z,43104
2017-08-23T13:47:12.033Z,60704
2017-08-23T13:48:22.006Z,61536
2017-08-23T13:49:31.665Z,58944
2017-08-23T13:50:41.649Z,48128
2017-08-23T13:51:51.335Z,47072
2017-08-23T13:53:01.621Z,46048
2017-08-23T13:54:11.593Z,55136
2017-08-23T13:55:21.306Z,58752
2017-08-23T13:56:30.999Z,45248
2017-08-23T13:57:41.294Z,38176
2017-08-23T13:58:51.266Z,31520
2017-08-23T14:00:01.557Z,34816
2017-08-23T14:01:11.535Z,48480
2017-08-23T14:02:21.510Z,53152
2017-08-23T14:03:31.500Z,53472
2017-08-23T14:04:41.794Z,48960
2017-08-23T14:05:51.769Z,42688
2017-08-23T14:07:01.456Z,31424
2017-08-23T14:08:11.747Z,29728
2017-08-23T14:09:21.722Z,34208
2017-08-23T14:10:31.700Z,31936
2017-08-23T14:11:41.673Z,35008
2017-08-23T14:12:51.962Z,32544
2017-08-23T14:14:01.940Z,29408
2017-08-23T14:15:11.283Z,32608
2017-08-23T14:16:21.569Z,41120
2017-08-23T14:17:31.545Z,45536
2017-08-23T14:18:41.839Z,56096
2017-08-23T14:19:51.864Z,58144
2017-08-23T14:21:02.152Z,58848
2017-08-23T14:22:12.127Z,50528
2017-08-23T14:23:22.216Z,60224
2017-08-23T14:24:32.513Z,63872
2017-08-23T14:25:42.538Z,63200
2017-08-23T14:26:52.508Z,63488
2017-08-23T14:28:02.497Z,57632
2017-08-23T14:29:12.470Z,55040
2017-08-23T14:30:22.268Z,49216
2017-08-23T14:31:32.355Z,44512
2017-08-23T14:32:42.606Z,45600
2017-08-23T14:33:52.714Z,32544
2017-08-23T14:35:03.003Z,27744
2017-08-23T14:36:13.295Z,48224
2017-08-23T14:37:23.584Z,53472
2017-08-23T14:38:33.878Z,57600
2017-08-23T14:39:43.574Z,56960
2017-08-23T14:40:53.550Z,55936
2017-08-23T14:42:03.520Z,59040
2017-08-23T14:43:13.493Z,65568
2017-08-23T14:44:23.468Z,68832
2017-08-23T14:45:33.763Z,73120
2017-08-23T14:46:43.417Z,72192
2017-08-23T14:47:53.420Z,72992
2017-08-23T14:49:03.716Z,70976
2017-08-23T14:50:14.048Z,67584
2017-08-23T14:51:23.705Z,57120
2017-08-23T14:52:33.691Z,46048
2017-08-23T14:53:43.347Z,45280
2017-08-23T14:54:53.015Z,48960
2017-08-23T14:56:02.999Z,48256
2017-08-23T14:57:12.658Z,41408
2017-08-23T14:58:22.952Z,45344
2017-08-23T14:59:33.239Z,41696
2017-08-23T15:00:43.212Z,47520
2017-08-23T15:01:53.185Z,42752
2017-08-23T15:03:03.481Z,59552
2017-08-23T15:04:13.143Z,61824
2017-08-23T15:05:23.123Z,61248
2017-08-23T15:06:33.415Z,60192
2017-08-23T15:07:43.391Z,59712
2017-08-23T15:08:53.684Z,61792
2017-08-23T15:10:03.977Z,60928
2017-08-23T15:11:14.274Z,61280
2017-08-23T15:12:24.250Z,58688
2017-08-23T15:13:34.228Z,61408
2017-08-23T15:14:44.528Z,59968
2017-08-23T15:15:54.510Z,56896
2017-08-23T15:17:04.795Z,57920
2017-08-23T15:18:14.777Z,58816
2017-08-23T15:19:24.750Z,57216
2017-08-23T15:20:34.726Z,57184
2017-08-23T15:21:45.016Z,56192
2017-08-23T15:22:55.303Z,55840
2017-08-23T15:24:05.596Z,56480
2017-08-23T15:25:15.265Z,56000
2017-08-23T15:26:24.928Z,56672
2017-08-23T15:27:34.905Z,57440
2017-08-23T15:28:44.570Z,54240
2017-08-23T15:29:54.865Z,56288
2017-08-23T15:31:05.154Z,48416
2017-08-23T15:32:15.135Z,19488
2017-08-23T15:33:25.137Z,25664
2017-08-23T15:34:35.430Z,37184
2017-08-23T15:35:45.726Z,23872
2017-08-23T15:36:55.902Z,9980
2017-08-23T15:38:06.191Z,9392
2017-08-23T15:39:16.488Z,9488
2017-08-23T15:40:26.470Z,9308
2017-08-23T15:41:36.451Z,9572
2017-08-23T15:42:46.740Z,9776
2017-08-23T15:43:57.030Z,8860
2017-08-23T15:45:07.014Z,8432
2017-08-23T15:46:16.983Z,8124
2017-08-23T15:47:27.273Z,7936
2017-08-23T15:48:37.567Z,7960